OJC weather

Johnson County Executive Airport
Olathe, Kansas, United States

Public forecast

Using degrees Fahrenheit for public forecast. Weather courtesy of forecast.io.

METAR (pilot weather report)

Retrieved 2019/05/22 13:53 UTC (58 minutes ago):

KOJC 221353Z 24008KT 10SM CLR 15/09 A2971 RMK AO2 SLP054 T01500094

TAF (pilot weather forecast)

Closest forecast is New Century Aircenter Airport, 7.2 nm (13.4 km) W. Retrieved 2019/05/22 12:22 UTC (2 hours ago):

TAF KIXD 221120Z 2212/2312 20008KT P6SM SKC FM222100 21010KT P6SM VCTS BKN060CB FM222200 23008KT 6SM -TSRA BKN070CB TEMPO 2222/2302 VRB20G40KT 1SM +TSRA BKN050CB FM230400 VRB04KT 6SM BR VCTS BKN060CB